sensor_id;sensor_type;location;lat;lon;timestamp;temperature;humidity
36716;DHT22;22699;51.034;3.730;2022-08-06T00:02:02;17.90;72.00
36716;DHT22;22699;51.034;3.730;2022-08-06T00:04:31;17.90;72.00
36716;DHT22;22699;51.034;3.730;2022-08-06T00:07:12;17.90;72.10
36716;DHT22;22699;51.034;3.730;2022-08-06T00:09:37;17.90;71.90
36716;DHT22;22699;51.034;3.730;2022-08-06T00:12:04;17.90;71.80
36716;DHT22;22699;51.034;3.730;2022-08-06T00:14:30;17.90;71.80
36716;DHT22;22699;51.034;3.730;2022-08-06T00:16:58;17.90;71.90
36716;DHT22;22699;51.034;3.730;2022-08-06T00:19:24;17.80;71.90
36716;DHT22;22699;51.034;3.730;2022-08-06T00:21:56;18.00;72.00
36716;DHT22;22699;51.034;3.730;2022-08-06T00:24:22;17.90;71.90
36716;DHT22;22699;51.034;3.730;2022-08-06T00:26:48;17.80;72.00
36716;DHT22;22699;51.034;3.730;2022-08-06T00:29:15;17.90;72.10
36716;DHT22;22699;51.034;3.730;2022-08-06T00:31:43;17.90;72.10
36716;DHT22;22699;51.034;3.730;2022-08-06T00:34:09;17.70;72.30
36716;DHT22;22699;51.034;3.730;2022-08-06T00:36:37;17.70;72.40
36716;DHT22;22699;51.034;3.730;2022-08-06T00:39:05;17.70;72.60
36716;DHT22;22699;51.034;3.730;2022-08-06T00:41:37;17.70;72.90
36716;DHT22;22699;51.034;3.730;2022-08-06T00:44:03;17.70;72.90
36716;DHT22;22699;51.034;3.730;2022-08-06T00:46:31;17.70;73.10
36716;DHT22;22699;51.034;3.730;2022-08-06T00:48:57;17.60;73.30
36716;DHT22;22699;51.034;3.730;2022-08-06T00:51:23;17.70;73.50
36716;DHT22;22699;51.034;3.730;2022-08-06T00:53:50;17.60;73.60
36716;DHT22;22699;51.034;3.730;2022-08-06T00:56:17;17.60;73.70
36716;DHT22;22699;51.034;3.730;2022-08-06T00:58:44;17.50;73.80
36716;DHT22;22699;51.034;3.730;2022-08-06T01:01:10;17.50;73.80
36716;DHT22;22699;51.034;3.730;2022-08-06T01:03:39;17.50;73.90
36716;DHT22;22699;51.034;3.730;2022-08-06T01:06:05;17.50;74.00
36716;DHT22;22699;51.034;3.730;2022-08-06T01:08:30;17.50;74.10
36716;DHT22;22699;51.034;3.730;2022-08-06T01:10:56;17.50;74.30
36716;DHT22;22699;51.034;3.730;2022-08-06T01:13:22;17.40;74.40
36716;DHT22;22699;51.034;3.730;2022-08-06T01:16:05;17.40;74.60
36716;DHT22;22699;51.034;3.730;2022-08-06T01:27:19;17.20;74.90
36716;DHT22;22699;51.034;3.730;2022-08-06T01:30:00;17.20;75.00
36716;DHT22;22699;51.034;3.730;2022-08-06T01:32:34;17.40;74.90
36716;DHT22;22699;51.034;3.730;2022-08-06T01:35:18;17.40;74.60
36716;DHT22;22699;51.034;3.730;2022-08-06T01:38:06;17.50;74.60
36716;DHT22;22699;51.034;3.730;2022-08-06T01:40:44;17.40;74.60
36716;DHT22;22699;51.034;3.730;2022-08-06T01:45:46;17.30;74.90
36716;DHT22;22699;51.034;3.730;2022-08-06T01:48:22;17.30;74.90
36716;DHT22;22699;51.034;3.730;2022-08-06T01:50:57;17.30;74.70
36716;DHT22;22699;51.034;3.730;2022-08-06T01:53:30;17.40;74.80
36716;DHT22;22699;51.034;3.730;2022-08-06T01:56:00;17.30;74.70
36716;DHT22;22699;51.034;3.730;2022-08-06T01:58:41;17.30;74.90
36716;DHT22;22699;51.034;3.730;2022-08-06T02:01:12;17.30;75.20
36716;DHT22;22699;51.034;3.730;2022-08-06T02:03:46;17.20;75.50
36716;DHT22;22699;51.034;3.730;2022-08-06T02:06:24;17.20;75.60
36716;DHT22;22699;51.034;3.730;2022-08-06T02:08:54;17.20;75.90
36716;DHT22;22699;51.034;3.730;2022-08-06T02:11:21;17.20;75.90
36716;DHT22;22699;51.034;3.730;2022-08-06T02:13:57;17.20;76.00
36716;DHT22;22699;51.034;3.730;2022-08-06T02:16:30;17.20;76.00
36716;DHT22;22699;51.034;3.730;2022-08-06T02:18:58;17.10;76.00
36716;DHT22;22699;51.034;3.730;2022-08-06T02:21:25;17.10;76.30
36716;DHT22;22699;51.034;3.730;2022-08-06T02:23:52;17.10;76.40
36716;DHT22;22699;51.034;3.730;2022-08-06T02:26:18;17.10;76.50
36716;DHT22;22699;51.034;3.730;2022-08-06T02:28:46;17.00;76.50
36716;DHT22;22699;51.034;3.730;2022-08-06T02:31:13;17.00;76.80
36716;DHT22;22699;51.034;3.730;2022-08-06T02:33:39;17.00;76.90
36716;DHT22;22699;51.034;3.730;2022-08-06T02:36:18;17.00;77.20
36716;DHT22;22699;51.034;3.730;2022-08-06T02:39:07;16.90;77.20
36716;DHT22;22699;51.034;3.730;2022-08-06T02:44:55;16.80;77.60
36716;DHT22;22699;51.034;3.730;2022-08-06T02:47:31;16.90;77.60
36716;DHT22;22699;51.034;3.730;2022-08-06T02:50:00;16.90;77.70
36716;DHT22;22699;51.034;3.730;2022-08-06T02:52:40;16.90;77.80
36716;DHT22;22699;51.034;3.730;2022-08-06T02:55:18;16.90;77.80
36716;DHT22;22699;51.034;3.730;2022-08-06T02:57:52;16.90;78.30
36716;DHT22;22699;51.034;3.730;2022-08-06T03:00:22;16.80;78.70
36716;DHT22;22699;51.034;3.730;2022-08-06T03:02:49;16.80;79.20
36716;DHT22;22699;51.034;3.730;2022-08-06T03:05:19;16.70;79.70
36716;DHT22;22699;51.034;3.730;2022-08-06T03:07:48;16.60;80.10
36716;DHT22;22699;51.034;3.730;2022-08-06T03:10:18;16.60;80.70
36716;DHT22;22699;51.034;3.730;2022-08-06T03:12:52;16.50;81.10
36716;DHT22;22699;51.034;3.730;2022-08-06T03:15:19;16.60;81.30
36716;DHT22;22699;51.034;3.730;2022-08-06T03:17:46;16.60;81.60
36716;DHT22;22699;51.034;3.730;2022-08-06T03:20:15;16.50;82.00
36716;DHT22;22699;51.034;3.730;2022-08-06T03:22:48;16.40;82.50
36716;DHT22;22699;51.034;3.730;2022-08-06T03:25:17;16.40;82.90
36716;DHT22;22699;51.034;3.730;2022-08-06T03:27:44;16.40;83.20
36716;DHT22;22699;51.034;3.730;2022-08-06T03:32:39;16.40;83.80
36716;DHT22;22699;51.034;3.730;2022-08-06T03:35:06;16.30;83.90
36716;DHT22;22699;51.034;3.730;2022-08-06T03:37:33;16.40;84.20
36716;DHT22;22699;51.034;3.730;2022-08-06T03:40:00;16.40;84.50
36716;DHT22;22699;51.034;3.730;2022-08-06T03:42:26;16.40;84.70
36716;DHT22;22699;51.034;3.730;2022-08-06T03:44:52;16.40;85.00
36716;DHT22;22699;51.034;3.730;2022-08-06T03:47:33;16.40;85.10
36716;DHT22;22699;51.034;3.730;2022-08-06T03:50:08;16.30;85.20
36716;DHT22;22699;51.034;3.730;2022-08-06T03:52:44;16.30;85.30
36716;DHT22;22699;51.034;3.730;2022-08-06T03:55:16;16.30;86.10
36716;DHT22;22699;51.034;3.730;2022-08-06T03:58:03;16.30;85.70
36716;DHT22;22699;51.034;3.730;2022-08-06T04:00:33;16.30;85.70
36716;DHT22;22699;51.034;3.730;2022-08-06T04:03:00;16.40;85.20
36716;DHT22;22699;51.034;3.730;2022-08-06T04:05:30;16.50;84.70
36716;DHT22;22699;51.034;3.730;2022-08-06T04:08:03;16.50;84.80
36716;DHT22;22699;51.034;3.730;2022-08-06T04:10:50;16.40;85.10
36716;DHT22;22699;51.034;3.730;2022-08-06T04:13:22;16.40;85.60
36716;DHT22;22699;51.034;3.730;2022-08-06T04:15:49;16.30;85.90
36716;DHT22;22699;51.034;3.730;2022-08-06T04:18:19;16.30;86.20
36716;DHT22;22699;51.034;3.730;2022-08-06T04:20:47;16.30;86.20
36716;DHT22;22699;51.034;3.730;2022-08-06T04:23:20;16.30;86.20
36716;DHT22;22699;51.034;3.730;2022-08-06T04:25:50;16.30;86.20
36716;DHT22;22699;51.034;3.730;2022-08-06T04:28:18;16.30;86.40
36716;DHT22;22699;51.034;3.730;2022-08-06T04:30:45;16.40;86.30
36716;DHT22;22699;51.034;3.730;2022-08-06T04:33:15;16.40;86.40
36716;DHT22;22699;51.034;3.730;2022-08-06T04:35:41;16.40;86.50
36716;DHT22;22699;51.034;3.730;2022-08-06T04:38:08;16.40;86.40
36716;DHT22;22699;51.034;3.730;2022-08-06T04:40:36;16.40;86.10
36716;DHT22;22699;51.034;3.730;2022-08-06T04:43:05;16.50;86.00
36716;DHT22;22699;51.034;3.730;2022-08-06T04:45:31;16.50;86.10
36716;DHT22;22699;51.034;3.730;2022-08-06T04:47:58;16.50;85.80
36716;DHT22;22699;51.034;3.730;2022-08-06T04:50:24;16.60;85.80
36716;DHT22;22699;51.034;3.730;2022-08-06T04:52:51;16.60;85.90
36716;DHT22;22699;51.034;3.730;2022-08-06T04:55:20;16.70;85.70
36716;DHT22;22699;51.034;3.730;2022-08-06T04:57:46;16.60;85.70
36716;DHT22;22699;51.034;3.730;2022-08-06T05:00:15;16.80;85.60
36716;DHT22;22699;51.034;3.730;2022-08-06T05:02:40;16.70;85.40
36716;DHT22;22699;51.034;3.730;2022-08-06T05:05:07;16.80;85.60
36716;DHT22;22699;51.034;3.730;2022-08-06T05:07:34;16.80;85.30
36716;DHT22;22699;51.034;3.730;2022-08-06T05:10:01;17.00;84.70
36716;DHT22;22699;51.034;3.730;2022-08-06T05:12:32;17.00;84.50
36716;DHT22;22699;51.034;3.730;2022-08-06T05:15:08;17.00;84.40
36716;DHT22;22699;51.034;3.730;2022-08-06T05:17:38;17.00;84.30
36716;DHT22;22699;51.034;3.730;2022-08-06T05:20:27;17.10;84.00
36716;DHT22;22699;51.034;3.730;2022-08-06T05:22:57;17.10;83.40
36716;DHT22;22699;51.034;3.730;2022-08-06T05:25:24;17.10;83.70
36716;DHT22;22699;51.034;3.730;2022-08-06T05:27:50;17.10;83.80
36716;DHT22;22699;51.034;3.730;2022-08-06T05:30:16;17.10;83.70
36716;DHT22;22699;51.034;3.730;2022-08-06T05:32:46;17.20;83.60
36716;DHT22;22699;51.034;3.730;2022-08-06T05:35:17;17.20;83.60
36716;DHT22;22699;51.034;3.730;2022-08-06T05:37:43;17.20;83.80
36716;DHT22;22699;51.034;3.730;2022-08-06T05:40:09;17.00;84.40
36716;DHT22;22699;51.034;3.730;2022-08-06T05:42:35;17.00;84.20
36716;DHT22;22699;51.034;3.730;2022-08-06T05:45:05;17.10;83.80
36716;DHT22;22699;51.034;3.730;2022-08-06T05:47:35;17.30;83.40
36716;DHT22;22699;51.034;3.730;2022-08-06T05:50:09;17.40;82.70
36716;DHT22;22699;51.034;3.730;2022-08-06T05:52:42;17.70;81.90
36716;DHT22;22699;51.034;3.730;2022-08-06T05:55:18;17.80;81.30
36716;DHT22;22699;51.034;3.730;2022-08-06T05:58:07;17.90;81.20
36716;DHT22;22699;51.034;3.730;2022-08-06T06:00:41;17.90;80.90
36716;DHT22;22699;51.034;3.730;2022-08-06T06:03:11;17.90;80.90
36716;DHT22;22699;51.034;3.730;2022-08-06T06:05:38;17.90;80.90
36716;DHT22;22699;51.034;3.730;2022-08-06T06:08:05;18.00;80.70
36716;DHT22;22699;51.034;3.730;2022-08-06T06:10:34;17.90;80.80
36716;DHT22;22699;51.034;3.730;2022-08-06T06:13:01;17.90;81.20
36716;DHT22;22699;51.034;3.730;2022-08-06T06:15:28;18.10;80.90
36716;DHT22;22699;51.034;3.730;2022-08-06T06:23:59;18.40;80.50
36716;DHT22;22699;51.034;3.730;2022-08-06T06:26:45;18.40;80.20
36716;DHT22;22699;51.034;3.730;2022-08-06T06:29:33;18.50;79.50
36716;DHT22;22699;51.034;3.730;2022-08-06T06:32:06;18.50;79.50
36716;DHT22;22699;51.034;3.730;2022-08-06T06:34:56;18.60;79.30
36716;DHT22;22699;51.034;3.730;2022-08-06T06:37:43;19.00;77.90
36716;DHT22;22699;51.034;3.730;2022-08-06T06:40:42;19.30;76.40
36716;DHT22;22699;51.034;3.730;2022-08-06T06:43:21;19.70;74.90
36716;DHT22;22699;51.034;3.730;2022-08-06T06:46:00;19.80;73.70
36716;DHT22;22699;51.034;3.730;2022-08-06T06:51:10;20.00;73.20
36716;DHT22;22699;51.034;3.730;2022-08-06T06:53:49;20.40;72.40
36716;DHT22;22699;51.034;3.730;2022-08-06T06:56:20;20.70;71.30
36716;DHT22;22699;51.034;3.730;2022-08-06T06:59:01;20.40;71.90
36716;DHT22;22699;51.034;3.730;2022-08-06T07:01:29;20.40;72.10
36716;DHT22;22699;51.034;3.730;2022-08-06T07:04:02;20.60;71.20
36716;DHT22;22699;51.034;3.730;2022-08-06T07:06:29;20.70;71.30
36716;DHT22;22699;51.034;3.730;2022-08-06T07:08:56;20.60;71.40
36716;DHT22;22699;51.034;3.730;2022-08-06T07:11:26;20.70;71.90
36716;DHT22;22699;51.034;3.730;2022-08-06T07:13:54;20.70;71.20
36716;DHT22;22699;51.034;3.730;2022-08-06T07:16:22;21.00;70.50
36716;DHT22;22699;51.034;3.730;2022-08-06T07:18:54;21.20;70.30
36716;DHT22;22699;51.034;3.730;2022-08-06T07:21:21;21.40;69.70
36716;DHT22;22699;51.034;3.730;2022-08-06T07:23:50;21.60;69.10
36716;DHT22;22699;51.034;3.730;2022-08-06T07:26:21;21.70;68.70
36716;DHT22;22699;51.034;3.730;2022-08-06T07:28:48;21.80;68.30
36716;DHT22;22699;51.034;3.730;2022-08-06T07:31:15;21.70;68.10
36716;DHT22;22699;51.034;3.730;2022-08-06T07:33:42;22.10;67.50
36716;DHT22;22699;51.034;3.730;2022-08-06T07:36:10;22.10;66.60
36716;DHT22;22699;51.034;3.730;2022-08-06T07:38:40;22.70;65.60
36716;DHT22;22699;51.034;3.730;2022-08-06T07:41:08;25.00;61.10
36716;DHT22;22699;51.034;3.730;2022-08-06T07:43:57;27.60;55.50
36716;DHT22;22699;51.034;3.730;2022-08-06T07:46:28;29.70;52.00
36716;DHT22;22699;51.034;3.730;2022-08-06T07:48:56;30.70;49.20
36716;DHT22;22699;51.034;3.730;2022-08-06T07:51:28;33.10;46.90
36716;DHT22;22699;51.034;3.730;2022-08-06T07:53:56;35.00;45.10
36716;DHT22;22699;51.034;3.730;2022-08-06T07:56:23;36.00;42.50
36716;DHT22;22699;51.034;3.730;2022-08-06T07:58:50;36.00;41.10
36716;DHT22;22699;51.034;3.730;2022-08-06T08:01:16;35.70;40.60
36716;DHT22;22699;51.034;3.730;2022-08-06T08:03:43;35.40;41.40
36716;DHT22;22699;51.034;3.730;2022-08-06T08:06:27;36.30;41.20
36716;DHT22;22699;51.034;3.730;2022-08-06T08:08:54;35.90;41.00
36716;DHT22;22699;51.034;3.730;2022-08-06T08:11:21;38.20;39.60
36716;DHT22;22699;51.034;3.730;2022-08-06T08:13:53;40.80;37.90
36716;DHT22;22699;51.034;3.730;2022-08-06T08:16:20;41.50;36.40
36716;DHT22;22699;51.034;3.730;2022-08-06T08:18:46;42.00;35.60
36716;DHT22;22699;51.034;3.730;2022-08-06T08:21:12;42.00;35.20
36716;DHT22;22699;51.034;3.730;2022-08-06T08:23:40;43.10;35.00
36716;DHT22;22699;51.034;3.730;2022-08-06T08:26:06;44.10;34.40
36716;DHT22;22699;51.034;3.730;2022-08-06T08:28:32;42.00;34.10
36716;DHT22;22699;51.034;3.730;2022-08-06T08:30:58;39.60;35.80
36716;DHT22;22699;51.034;3.730;2022-08-06T08:33:27;38.30;36.90
36716;DHT22;22699;51.034;3.730;2022-08-06T08:35:53;36.30;38.50
36716;DHT22;22699;51.034;3.730;2022-08-06T08:38:19;38.30;37.90
36716;DHT22;22699;51.034;3.730;2022-08-06T08:40:47;40.80;36.30
36716;DHT22;22699;51.034;3.730;2022-08-06T08:43:21;40.80;35.70
36716;DHT22;22699;51.034;3.730;2022-08-06T08:45:49;42.30;35.00
36716;DHT22;22699;51.034;3.730;2022-08-06T08:48:19;42.90;33.90
36716;DHT22;22699;51.034;3.730;2022-08-06T08:50:46;45.00;33.40
36716;DHT22;22699;51.034;3.730;2022-08-06T08:53:14;43.70;33.30
36716;DHT22;22699;51.034;3.730;2022-08-06T08:55:41;45.70;32.90
36716;DHT22;22699;51.034;3.730;2022-08-06T08:58:07;47.10;32.20
36716;DHT22;22699;51.034;3.730;2022-08-06T09:00:34;48.40;31.30
36716;DHT22;22699;51.034;3.730;2022-08-06T09:03:02;47.90;30.70
36716;DHT22;22699;51.034;3.730;2022-08-06T09:05:29;46.60;31.40
36716;DHT22;22699;51.034;3.730;2022-08-06T09:07:56;43.30;32.30
36716;DHT22;22699;51.034;3.730;2022-08-06T09:10:23;42.50;33.60
36716;DHT22;22699;51.034;3.730;2022-08-06T09:12:50;44.60;32.70
36716;DHT22;22699;51.034;3.730;2022-08-06T09:15:16;44.00;32.40
36716;DHT22;22699;51.034;3.730;2022-08-06T09:17:43;41.10;34.00
36716;DHT22;22699;51.034;3.730;2022-08-06T09:20:09;41.50;34.10
36716;DHT22;22699;51.034;3.730;2022-08-06T09:22:35;43.20;33.50
36716;DHT22;22699;51.034;3.730;2022-08-06T09:25:02;45.40;32.40
36716;DHT22;22699;51.034;3.730;2022-08-06T09:27:37;47.20;31.40
36716;DHT22;22699;51.034;3.730;2022-08-06T09:30:05;47.40;31.30
36716;DHT22;22699;51.034;3.730;2022-08-06T09:35:03;46.50;31.40
36716;DHT22;22699;51.034;3.730;2022-08-06T09:37:40;47.20;31.20
36716;DHT22;22699;51.034;3.730;2022-08-06T09:40:13;47.20;30.60
36716;DHT22;22699;51.034;3.730;2022-08-06T09:42:44;44.20;31.80
36716;DHT22;22699;51.034;3.730;2022-08-06T09:45:13;39.70;34.50
36716;DHT22;22699;51.034;3.730;2022-08-06T09:47:39;37.20;36.70
36716;DHT22;22699;51.034;3.730;2022-08-06T09:50:06;36.10;38.50
36716;DHT22;22699;51.034;3.730;2022-08-06T09:52:32;34.30;39.60
36716;DHT22;22699;51.034;3.730;2022-08-06T09:54:58;33.40;40.90
36716;DHT22;22699;51.034;3.730;2022-08-06T09:57:26;35.00;40.10
36716;DHT22;22699;51.034;3.730;2022-08-06T09:59:52;37.40;37.80
36716;DHT22;22699;51.034;3.730;2022-08-06T10:02:23;36.90;37.50
36716;DHT22;22699;51.034;3.730;2022-08-06T10:04:49;38.00;37.20
36716;DHT22;22699;51.034;3.730;2022-08-06T10:07:29;38.20;36.50
36716;DHT22;22699;51.034;3.730;2022-08-06T10:09:55;39.50;35.50
36716;DHT22;22699;51.034;3.730;2022-08-06T10:12:23;38.70;35.60
36716;DHT22;22699;51.034;3.730;2022-08-06T10:14:50;36.60;36.60
36716;DHT22;22699;51.034;3.730;2022-08-06T10:17:18;34.90;37.60
36716;DHT22;22699;51.034;3.730;2022-08-06T10:19:46;32.70;39.40
36716;DHT22;22699;51.034;3.730;2022-08-06T10:22:14;31.80;40.50
36716;DHT22;22699;51.034;3.730;2022-08-06T10:24:42;30.80;41.90
36716;DHT22;22699;51.034;3.730;2022-08-06T10:27:13;29.80;42.60
36716;DHT22;22699;51.034;3.730;2022-08-06T10:29:44;29.70;42.90
36716;DHT22;22699;51.034;3.730;2022-08-06T10:32:15;29.10;43.70
36716;DHT22;22699;51.034;3.730;2022-08-06T10:34:44;28.30;44.70
36716;DHT22;22699;51.034;3.730;2022-08-06T10:37:16;27.70;45.50
36716;DHT22;22699;51.034;3.730;2022-08-06T10:39:56;27.30;45.50
36716;DHT22;22699;51.034;3.730;2022-08-06T10:42:23;26.90;45.80
36716;DHT22;22699;51.034;3.730;2022-08-06T10:44:50;26.20;47.10
36716;DHT22;22699;51.034;3.730;2022-08-06T10:47:17;25.90;47.80
36716;DHT22;22699;51.034;3.730;2022-08-06T10:49:43;26.00;48.00
36716;DHT22;22699;51.034;3.730;2022-08-06T10:52:12;26.20;48.10
36716;DHT22;22699;51.034;3.730;2022-08-06T10:54:40;26.10;48.10
36716;DHT22;22699;51.034;3.730;2022-08-06T10:57:07;26.20;47.60
36716;DHT22;22699;51.034;3.730;2022-08-06T10:59:35;26.20;48.00
36716;DHT22;22699;51.034;3.730;2022-08-06T11:02:27;26.20;48.10
36716;DHT22;22699;51.034;3.730;2022-08-06T11:05:10;26.00;48.60
36716;DHT22;22699;51.034;3.730;2022-08-06T11:15:45;25.40;49.70
36716;DHT22;22699;51.034;3.730;2022-08-06T11:18:12;25.20;50.20
36716;DHT22;22699;51.034;3.730;2022-08-06T11:20:43;24.90;50.80
36716;DHT22;22699;51.034;3.730;2022-08-06T11:26:00;24.40;51.00
36716;DHT22;22699;51.034;3.730;2022-08-06T11:31:02;24.80;49.80
36716;DHT22;22699;51.034;3.730;2022-08-06T11:36:02;25.80;47.30
36716;DHT22;22699;51.034;3.730;2022-08-06T11:41:24;26.30;47.40
36716;DHT22;22699;51.034;3.730;2022-08-06T11:46:26;26.10;46.20
36716;DHT22;22699;51.034;3.730;2022-08-06T12:02:00;24.40;49.10
36716;DHT22;22699;51.034;3.730;2022-08-06T12:20:32;25.30;45.90
36716;DHT22;22699;51.034;3.730;2022-08-06T12:22:59;24.90;47.00
36716;DHT22;22699;51.034;3.730;2022-08-06T12:25:45;24.90;47.40
36716;DHT22;22699;51.034;3.730;2022-08-06T12:28:14;24.90;47.40
36716;DHT22;22699;51.034;3.730;2022-08-06T12:30:45;24.70;47.90
36716;DHT22;22699;51.034;3.730;2022-08-06T12:33:12;24.80;48.20
36716;DHT22;22699;51.034;3.730;2022-08-06T12:35:59;24.90;47.70
36716;DHT22;22699;51.034;3.730;2022-08-06T12:38:28;25.00;47.70
36716;DHT22;22699;51.034;3.730;2022-08-06T12:41:05;25.20;47.50
36716;DHT22;22699;51.034;3.730;2022-08-06T12:43:32;25.30;46.80
36716;DHT22;22699;51.034;3.730;2022-08-06T12:46:00;25.10;46.90
36716;DHT22;22699;51.034;3.730;2022-08-06T12:48:34;25.00;47.10
36716;DHT22;22699;51.034;3.730;2022-08-06T12:51:11;24.80;47.90
36716;DHT22;22699;51.034;3.730;2022-08-06T12:53:52;25.00;48.50
36716;DHT22;22699;51.034;3.730;2022-08-06T12:56:20;25.30;47.20
36716;DHT22;22699;51.034;3.730;2022-08-06T12:58:48;25.10;47.30
36716;DHT22;22699;51.034;3.730;2022-08-06T13:01:27;25.00;47.50
36716;DHT22;22699;51.034;3.730;2022-08-06T13:03:54;25.00;47.90
36716;DHT22;22699;51.034;3.730;2022-08-06T13:06:24;25.00;47.90
36716;DHT22;22699;51.034;3.730;2022-08-06T13:08:51;24.80;48.10
36716;DHT22;22699;51.034;3.730;2022-08-06T13:11:17;24.70;48.40
36716;DHT22;22699;51.034;3.730;2022-08-06T13:13:48;24.90;48.30
36716;DHT22;22699;51.034;3.730;2022-08-06T13:16:16;24.80;48.20
36716;DHT22;22699;51.034;3.730;2022-08-06T13:19:02;24.60;48.00
36716;DHT22;22699;51.034;3.730;2022-08-06T13:21:35;24.70;47.20
36716;DHT22;22699;51.034;3.730;2022-08-06T13:24:05;25.10;46.90
36716;DHT22;22699;51.034;3.730;2022-08-06T13:26:33;25.20;46.40
36716;DHT22;22699;51.034;3.730;2022-08-06T13:29:12;25.50;46.00
36716;DHT22;22699;51.034;3.730;2022-08-06T13:31:41;25.60;45.50
36716;DHT22;22699;51.034;3.730;2022-08-06T13:34:09;25.90;45.90
36716;DHT22;22699;51.034;3.730;2022-08-06T13:36:37;25.60;46.30
36716;DHT22;22699;51.034;3.730;2022-08-06T13:39:18;25.30;46.30
36716;DHT22;22699;51.034;3.730;2022-08-06T13:41:44;25.30;46.00
36716;DHT22;22699;51.034;3.730;2022-08-06T13:44:37;25.30;45.90
36716;DHT22;22699;51.034;3.730;2022-08-06T13:47:07;25.10;46.60
36716;DHT22;22699;51.034;3.730;2022-08-06T13:49:33;24.70;47.10
36716;DHT22;22699;51.034;3.730;2022-08-06T13:52:00;24.50;48.00
36716;DHT22;22699;51.034;3.730;2022-08-06T13:54:27;24.40;48.30
36716;DHT22;22699;51.034;3.730;2022-08-06T13:56:55;24.40;48.50
36716;DHT22;22699;51.034;3.730;2022-08-06T13:59:22;24.40;47.80
36716;DHT22;22699;51.034;3.730;2022-08-06T14:01:49;24.50;47.30
36716;DHT22;22699;51.034;3.730;2022-08-06T14:04:17;24.40;47.30
36716;DHT22;22699;51.034;3.730;2022-08-06T14:06:45;24.60;47.10
36716;DHT22;22699;51.034;3.730;2022-08-06T14:09:15;24.70;47.60
36716;DHT22;22699;51.034;3.730;2022-08-06T14:11:42;24.80;47.60
36716;DHT22;22699;51.034;3.730;2022-08-06T14:14:08;24.90;47.00
36716;DHT22;22699;51.034;3.730;2022-08-06T14:16:34;25.00;47.70
36716;DHT22;22699;51.034;3.730;2022-08-06T14:19:00;24.90;47.00
36716;DHT22;22699;51.034;3.730;2022-08-06T14:21:25;24.80;46.80
36716;DHT22;22699;51.034;3.730;2022-08-06T14:23:57;24.70;46.60
36716;DHT22;22699;51.034;3.730;2022-08-06T14:26:23;24.50;46.60
36716;DHT22;22699;51.034;3.730;2022-08-06T14:28:48;24.40;47.60
36716;DHT22;22699;51.034;3.730;2022-08-06T14:31:14;24.20;48.30
36716;DHT22;22699;51.034;3.730;2022-08-06T14:33:39;24.30;48.10
36716;DHT22;22699;51.034;3.730;2022-08-06T14:36:06;24.20;47.80
36716;DHT22;22699;51.034;3.730;2022-08-06T14:38:33;24.00;48.10
36716;DHT22;22699;51.034;3.730;2022-08-06T14:40:59;23.90;48.00
36716;DHT22;22699;51.034;3.730;2022-08-06T14:43:43;23.80;48.20
36716;DHT22;22699;51.034;3.730;2022-08-06T14:46:28;23.70;48.10
36716;DHT22;22699;51.034;3.730;2022-08-06T14:48:55;23.70;48.20
36716;DHT22;22699;51.034;3.730;2022-08-06T14:51:21;23.90;47.90
36716;DHT22;22699;51.034;3.730;2022-08-06T14:53:46;24.10;48.30
36716;DHT22;22699;51.034;3.730;2022-08-06T14:56:12;24.20;48.90
36716;DHT22;22699;51.034;3.730;2022-08-06T14:58:38;24.20;48.70
36716;DHT22;22699;51.034;3.730;2022-08-06T15:01:03;24.30;47.40
36716;DHT22;22699;51.034;3.730;2022-08-06T15:03:29;24.40;47.40
36716;DHT22;22699;51.034;3.730;2022-08-06T15:05:54;24.30;47.10
36716;DHT22;22699;51.034;3.730;2022-08-06T15:08:28;24.20;47.40
36716;DHT22;22699;51.034;3.730;2022-08-06T15:10:54;24.20;47.70
36716;DHT22;22699;51.034;3.730;2022-08-06T15:13:19;24.10;47.80
36716;DHT22;22699;51.034;3.730;2022-08-06T15:15:45;24.10;48.30
36716;DHT22;22699;51.034;3.730;2022-08-06T15:18:14;24.00;48.20
36716;DHT22;22699;51.034;3.730;2022-08-06T15:20:44;24.00;48.40
36716;DHT22;22699;51.034;3.730;2022-08-06T15:23:09;24.10;48.70
36716;DHT22;22699;51.034;3.730;2022-08-06T15:25:35;24.10;48.90
36716;DHT22;22699;51.034;3.730;2022-08-06T15:28:24;24.10;48.80
36716;DHT22;22699;51.034;3.730;2022-08-06T15:30:50;24.20;48.60
36716;DHT22;22699;51.034;3.730;2022-08-06T15:33:15;24.30;48.50
36716;DHT22;22699;51.034;3.730;2022-08-06T15:35:41;24.40;48.20
36716;DHT22;22699;51.034;3.730;2022-08-06T15:38:07;24.60;47.90
36716;DHT22;22699;51.034;3.730;2022-08-06T15:40:53;24.60;47.30
36716;DHT22;22699;51.034;3.730;2022-08-06T15:43:25;24.80;47.40
36716;DHT22;22699;51.034;3.730;2022-08-06T15:45:53;24.70;47.20
36716;DHT22;22699;51.034;3.730;2022-08-06T15:48:20;24.70;47.80
36716;DHT22;22699;51.034;3.730;2022-08-06T15:50:48;24.70;48.00
36716;DHT22;22699;51.034;3.730;2022-08-06T15:53:14;24.90;48.30
36716;DHT22;22699;51.034;3.730;2022-08-06T15:55:41;25.00;47.60
36716;DHT22;22699;51.034;3.730;2022-08-06T15:58:14;24.80;47.20
36716;DHT22;22699;51.034;3.730;2022-08-06T16:00:43;24.40;47.60
36716;DHT22;22699;51.034;3.730;2022-08-06T16:03:14;24.10;48.40
36716;DHT22;22699;51.034;3.730;2022-08-06T16:05:41;24.00;48.70
36716;DHT22;22699;51.034;3.730;2022-08-06T16:08:08;24.00;49.00
36716;DHT22;22699;51.034;3.730;2022-08-06T16:13:09;23.90;48.50
36716;DHT22;22699;51.034;3.730;2022-08-06T16:15:43;23.70;48.50
36716;DHT22;22699;51.034;3.730;2022-08-06T16:18:09;23.70;49.00
36716;DHT22;22699;51.034;3.730;2022-08-06T16:20:35;23.70;49.50
36716;DHT22;22699;51.034;3.730;2022-08-06T16:23:00;23.60;49.60
36716;DHT22;22699;51.034;3.730;2022-08-06T16:25:27;23.60;49.70
36716;DHT22;22699;51.034;3.730;2022-08-06T16:27:53;23.40;50.00
36716;DHT22;22699;51.034;3.730;2022-08-06T16:30:19;23.30;50.70
36716;DHT22;22699;51.034;3.730;2022-08-06T16:32:45;23.30;50.60
36716;DHT22;22699;51.034;3.730;2022-08-06T16:35:11;23.40;50.80
36716;DHT22;22699;51.034;3.730;2022-08-06T16:37:36;23.50;50.70
36716;DHT22;22699;51.034;3.730;2022-08-06T16:40:02;23.60;50.50
36716;DHT22;22699;51.034;3.730;2022-08-06T16:42:28;23.60;50.40
36716;DHT22;22699;51.034;3.730;2022-08-06T16:44:54;23.90;49.90
36716;DHT22;22699;51.034;3.730;2022-08-06T16:47:19;24.00;49.50
36716;DHT22;22699;51.034;3.730;2022-08-06T16:49:48;24.00;49.60
36716;DHT22;22699;51.034;3.730;2022-08-06T16:52:14;24.00;49.50
36716;DHT22;22699;51.034;3.730;2022-08-06T16:54:39;23.90;49.90
36716;DHT22;22699;51.034;3.730;2022-08-06T16:57:05;23.70;50.00
36716;DHT22;22699;51.034;3.730;2022-08-06T16:59:31;23.60;50.20
36716;DHT22;22699;51.034;3.730;2022-08-06T17:01:56;23.60;50.50
36716;DHT22;22699;51.034;3.730;2022-08-06T17:04:40;23.60;50.40
36716;DHT22;22699;51.034;3.730;2022-08-06T17:07:06;23.40;50.70
36716;DHT22;22699;51.034;3.730;2022-08-06T17:09:32;23.40;50.90